Time;durP1;ratioP1;P1;durP2;ratioP2;P2;SDS_P1;SDS_P2;PMS_P1;PMS_P2;Temp;Humidity;BMP_temperature;BMP_pressure;BME280_temperature;BME280_humidity;BME280_pressure;Samples;Min_cycle;Max_cycle;Signal;HPM_P1;HPM_P2
2020/12/16 00:01:42;;;;;;;83.72;24.27;;;5.90;99.90;;;;;;5052280;28;20742;-70
2020/12/16 00:04:09;;;;;;;79.00;21.33;;;5.80;99.90;;;;;;5051924;28;20238;-70
2020/12/16 00:06:35;;;;;;;82.72;21.55;;;5.80;99.90;;;;;;5051922;28;20693;-70
2020/12/16 00:09:03;;;;;;;82.50;22.27;;;5.80;99.90;;;;;;5051987;28;20447;-70
2020/12/16 00:11:29;;;;;;;80.50;22.85;;;5.80;99.90;;;;;;5051931;28;20320;-70
2020/12/16 00:13:55;;;;;;;84.35;23.65;;;5.90;99.90;;;;;;5052049;28;20243;-70
2020/12/16 00:16:21;;;;;;;78.28;21.25;;;5.90;99.90;;;;;;5051722;28;20257;-70
2020/12/16 00:18:48;;;;;;;82.05;21.35;;;6.00;99.90;;;;;;5052122;28;20236;-70
2020/12/16 00:21:20;;;;;;;82.07;21.33;;;6.10;99.90;;;;;;5051746;28;20309;-70
2020/12/16 00:23:47;;;;;;;80.70;20.58;;;6.10;99.90;;;;;;5051990;28;20190;-70
2020/12/16 00:26:14;;;;;;;78.32;21.50;;;6.10;99.90;;;;;;5051438;28;20202;-70
2020/12/16 00:28:41;;;;;;;77.72;20.45;;;6.20;99.90;;;;;;5051916;28;20222;-69
2020/12/16 00:31:07;;;;;;;83.65;22.40;;;6.20;99.90;;;;;;5051794;28;20578;-70
2020/12/16 00:33:33;;;;;;;72.05;18.30;;;6.20;99.90;;;;;;5051533;28;20209;-70
2020/12/16 00:36:00;;;;;;;78.00;21.50;;;6.20;99.90;;;;;;5051408;28;20206;-70
2020/12/16 00:38:26;;;;;;;78.03;20.52;;;6.20;99.90;;;;;;5051791;28;20216;-70
2020/12/16 00:40:52;;;;;;;76.50;20.90;;;6.20;99.90;;;;;;5051564;28;20226;-70
2020/12/16 00:43:20;;;;;;;76.90;20.73;;;6.20;99.90;;;;;;5051443;28;20211;-70
2020/12/16 00:45:46;;;;;;;77.53;22.30;;;6.10;99.90;;;;;;5051281;28;20198;-70
2020/12/16 00:48:12;;;;;;;77.50;20.88;;;6.10;99.90;;;;;;5051507;28;20209;-69
2020/12/16 00:50:39;;;;;;;79.15;22.02;;;6.10;99.90;;;;;;5051324;28;20230;-70
2020/12/16 00:53:05;;;;;;;78.88;20.52;;;6.10;99.90;;;;;;5051455;28;20301;-70
2020/12/16 00:55:32;;;;;;;81.40;20.83;;;6.10;99.90;;;;;;5050973;28;20316;-70
2020/12/16 00:57:58;;;;;;;79.78;21.38;;;6.20;99.90;;;;;;5051247;28;20212;-70
2020/12/16 01:00:26;;;;;;;75.10;19.17;;;6.20;99.90;;;;;;5051279;28;20604;-69
2020/12/16 01:02:52;;;;;;;83.93;21.42;;;6.20;99.90;;;;;;5051305;28;20238;-69
2020/12/16 01:05:20;;;;;;;81.65;20.40;;;6.20;99.90;;;;;;5050857;28;20207;-70
2020/12/16 01:07:46;;;;;;;79.45;21.20;;;6.20;99.90;;;;;;5051491;28;20245;-70
2020/12/16 01:10:14;;;;;;;79.50;20.67;;;6.20;99.90;;;;;;5051072;28;20202;-70
2020/12/16 01:12:42;;;;;;;76.88;18.83;;;6.20;99.90;;;;;;5051156;28;20209;-70
2020/12/16 01:15:10;;;;;;;81.65;19.70;;;6.20;99.90;;;;;;5050965;28;20218;-69
2020/12/16 01:17:39;;;;;;;79.00;19.08;;;6.20;99.90;;;;;;5051020;28;20210;-70
2020/12/16 01:20:07;;;;;;;76.32;20.02;;;6.20;99.90;;;;;;5051308;28;20209;-69
2020/12/16 01:22:37;;;;;;;80.45;20.92;;;6.20;99.90;;;;;;5051072;28;20210;-67
2020/12/16 01:25:05;;;;;;;73.00;19.08;;;6.20;99.90;;;;;;5050994;28;20210;-67
2020/12/16 01:27:31;;;;;;;82.15;21.17;;;6.20;99.90;;;;;;5050996;28;20689;-67
2020/12/16 01:29:57;;;;;;;79.97;20.13;;;6.20;99.90;;;;;;5051131;28;20592;-67
2020/12/16 01:32:24;;;;;;;81.75;21.23;;;6.20;99.90;;;;;;5050776;28;20581;-67
2020/12/16 01:34:51;;;;;;;81.47;20.52;;;6.20;99.90;;;;;;5050912;28;20322;-67
2020/12/16 01:37:17;;;;;;;79.20;19.77;;;6.30;99.90;;;;;;5051089;28;20211;-67
2020/12/16 01:39:44;;;;;;;80.57;20.08;;;6.30;99.90;;;;;;5051020;28;20221;-68
2020/12/16 01:42:10;;;;;;;81.05;19.17;;;6.30;99.90;;;;;;5051257;28;20237;-67
2020/12/16 01:44:36;;;;;;;78.68;20.27;;;6.30;99.90;;;;;;5050666;28;20241;-67
2020/12/16 01:47:03;;;;;;;85.45;19.90;;;6.40;99.90;;;;;;5050827;28;20215;-67
2020/12/16 01:49:30;;;;;;;86.20;21.15;;;6.40;99.90;;;;;;5050832;28;20754;-67
2020/12/16 01:51:59;;;;;;;82.40;19.40;;;6.40;99.90;;;;;;5050915;28;20272;-67
2020/12/16 01:54:26;;;;;;;82.63;18.80;;;6.40;99.90;;;;;;5050739;28;20236;-67
2020/12/16 01:56:55;;;;;;;76.70;18.15;;;6.40;99.90;;;;;;5050818;28;20207;-67
2020/12/16 01:59:22;;;;;;;76.45;17.63;;;6.40;99.90;;;;;;5050611;28;20210;-67
2020/12/16 02:01:51;;;;;;;77.97;18.85;;;6.50;99.90;;;;;;5050155;28;20738;-67
2020/12/16 02:04:22;;;;;;;75.85;17.17;;;6.50;99.90;;;;;;5050455;28;20209;-67
2020/12/16 02:06:50;;;;;;;76.55;17.33;;;6.50;99.90;;;;;;5049669;28;20202;-67
2020/12/16 02:09:20;;;;;;;77.00;19.52;;;6.50;99.90;;;;;;5050862;28;20270;-67
2020/12/16 02:11:47;;;;;;;83.90;19.48;;;6.50;99.90;;;;;;5053605;28;20243;-67
2020/12/16 02:14:14;;;;;;;78.75;17.80;;;6.50;99.90;;;;;;5053539;28;20235;-67
2020/12/16 02:16:40;;;;;;;78.40;18.08;;;6.50;99.90;;;;;;5053355;28;20205;-67
2020/12/16 02:19:09;;;;;;;79.93;18.25;;;6.50;99.90;;;;;;5054138;28;20208;-67
2020/12/16 02:21:36;;;;;;;79.22;18.80;;;6.50;99.90;;;;;;5052981;28;20235;-67
2020/12/16 02:24:05;;;;;;;80.93;20.10;;;6.50;99.90;;;;;;5054065;28;20242;-67
2020/12/16 02:26:34;;;;;;;79.63;18.75;;;6.50;99.90;;;;;;5053610;28;20455;-67
2020/12/16 02:29:00;;;;;;;78.65;18.45;;;6.50;99.90;;;;;;5050854;28;20211;-67
2020/12/16 02:31:28;;;;;;;78.28;18.90;;;6.50;99.90;;;;;;5053875;28;20224;-67
2020/12/16 02:33:54;;;;;;;79.63;20.33;;;6.60;99.90;;;;;;5053453;28;20209;-67
2020/12/16 02:36:21;;;;;;;84.00;20.20;;;6.60;99.90;;;;;;5053500;28;20212;-67
2020/12/16 02:38:47;;;;;;;79.82;18.90;;;6.60;99.90;;;;;;5053609;28;20294;-67
2020/12/16 02:41:14;;;;;;;79.90;19.70;;;6.50;99.90;;;;;;5053835;28;20382;-67
2020/12/16 02:43:41;;;;;;;84.60;20.50;;;6.50;99.90;;;;;;5053586;28;20208;-67
2020/12/16 02:46:07;;;;;;;80.73;20.43;;;6.50;99.90;;;;;;5053521;28;20297;-67
2020/12/16 02:48:34;;;;;;;81.28;19.70;;;6.50;99.90;;;;;;5053457;28;20445;-67
2020/12/16 02:51:01;;;;;;;85.72;20.15;;;6.50;99.90;;;;;;5053709;28;20236;-67
2020/12/16 02:53:27;;;;;;;83.60;19.40;;;6.40;99.90;;;;;;5053735;28;20224;-67
2020/12/16 02:55:54;;;;;;;82.07;20.10;;;6.40;99.90;;;;;;5053072;28;20736;-67
2020/12/16 02:58:20;;;;;;;81.15;18.70;;;6.40;99.90;;;;;;5053588;28;20256;-67
2020/12/16 03:00:48;;;;;;;82.85;17.55;;;6.40;99.90;;;;;;5053315;28;20229;-67
2020/12/16 03:03:14;;;;;;;78.50;19.10;;;6.40;99.90;;;;;;5053190;28;20217;-67
2020/12/16 03:05:40;;;;;;;79.25;18.13;;;6.40;99.90;;;;;;5053166;28;20636;-67
2020/12/16 03:08:09;;;;;;;85.45;19.98;;;6.40;99.90;;;;;;5053501;28;20211;-67
2020/12/16 03:10:36;;;;;;;77.85;19.05;;;6.40;99.90;;;;;;5053091;28;20235;-67
2020/12/16 03:13:02;;;;;;;80.75;19.70;;;6.50;99.90;;;;;;5053301;28;20207;-67
2020/12/16 03:15:28;;;;;;;79.82;17.98;;;6.50;99.90;;;;;;5052815;28;20721;-67
2020/12/16 03:17:56;;;;;;;84.50;18.73;;;6.50;99.90;;;;;;5052893;28;20682;-67
2020/12/16 03:20:22;;;;;;;80.20;19.77;;;6.50;99.90;;;;;;5053256;28;20292;-67
2020/12/16 03:22:48;;;;;;;88.13;20.00;;;6.50;99.90;;;;;;5052967;28;20446;-67
2020/12/16 03:25:15;;;;;;;78.25;19.27;;;6.50;99.90;;;;;;5052831;28;20441;-67
2020/12/16 03:27:41;;;;;;;79.05;18.92;;;6.50;99.90;;;;;;5052904;28;20202;-67
2020/12/16 03:30:09;;;;;;;82.35;19.70;;;6.50;99.90;;;;;;5052832;28;20214;-67
2020/12/16 03:32:35;;;;;;;80.97;20.45;;;6.50;99.90;;;;;;5052558;28;20241;-68
2020/12/16 03:35:02;;;;;;;82.80;20.23;;;6.40;99.90;;;;;;5052383;28;20226;-67
2020/12/16 03:37:29;;;;;;;86.57;19.92;;;6.40;99.90;;;;;;5052819;28;20280;-67
2020/12/16 03:39:55;;;;;;;85.60;20.73;;;6.40;99.90;;;;;;5052954;28;20211;-67
2020/12/16 03:42:21;;;;;;;83.18;19.75;;;6.30;99.90;;;;;;5052383;28;20735;-67
2020/12/16 03:44:48;;;;;;;80.22;19.90;;;6.30;99.90;;;;;;5052271;28;20360;-68
2020/12/16 03:47:15;;;;;;;81.47;19.73;;;6.20;99.90;;;;;;5052798;28;20579;-67
2020/12/16 03:49:41;;;;;;;80.63;19.52;;;6.20;99.90;;;;;;5052582;28;20201;-67
2020/12/16 03:52:08;;;;;;;84.90;19.48;;;6.20;99.90;;;;;;5052833;28;20319;-67
2020/12/16 03:54:34;;;;;;;80.18;19.15;;;6.10;99.90;;;;;;5052287;28;20768;-67
2020/12/16 03:57:01;;;;;;;73.30;17.57;;;6.10;99.90;;;;;;5052038;28;20674;-67
2020/12/16 03:59:27;;;;;;;80.30;20.17;;;6.10;99.90;;;;;;5052142;28;20440;-70
2020/12/16 04:01:53;;;;;;;75.65;18.40;;;6.00;99.90;;;;;;5052404;28;20334;-70
2020/12/16 04:04:20;;;;;;;76.82;18.05;;;6.00;99.90;;;;;;5052235;28;20610;-69
2020/12/16 04:06:46;;;;;;;75.80;17.85;;;6.00;99.90;;;;;;5052187;28;20681;-70
2020/12/16 04:09:13;;;;;;;77.65;18.67;;;6.00;99.90;;;;;;5052301;28;20298;-68
2020/12/16 04:11:40;;;;;;;79.60;19.23;;;6.00;99.90;;;;;;5059682;22;20256;-69
2020/12/16 04:14:06;;;;;;;78.07;18.55;;;6.00;99.90;;;;;;5011923;28;20208;-70
2020/12/16 04:16:32;;;;;;;85.13;19.58;;;6.00;99.90;;;;;;5012202;28;20213;-69
2020/12/16 04:18:59;;;;;;;72.35;16.70;;;6.00;99.90;;;;;;5012403;28;20203;-70
2020/12/16 04:21:25;;;;;;;77.97;18.75;;;6.00;99.90;;;;;;5012161;28;20292;-70
2020/12/16 04:23:51;;;;;;;78.15;17.40;;;6.00;99.90;;;;;;5012175;28;20219;-69
2020/12/16 04:26:23;;;;;;;78.72;17.30;;;6.00;99.90;;;;;;5011931;28;20202;-69
2020/12/16 04:28:50;;;;;;;75.63;17.83;;;6.00;99.90;;;;;;5012180;28;20247;-69
2020/12/16 04:31:17;;;;;;;77.22;18.27;;;5.90;99.90;;;;;;5012209;28;20315;-70
2020/12/16 04:33:44;;;;;;;74.30;17.58;;;5.90;99.90;;;;;;5011592;28;20293;-69
2020/12/16 04:36:10;;;;;;;74.95;16.95;;;5.90;99.90;;;;;;5011642;28;20709;-69
2020/12/16 04:38:37;;;;;;;74.18;16.70;;;5.90;99.90;;;;;;5011941;28;20218;-69
2020/12/16 04:41:06;;;;;;;75.82;16.65;;;5.90;99.90;;;;;;5011795;28;20345;-69
2020/12/16 04:43:40;;;;;;;85.72;18.65;;;5.80;99.90;;;;;;5012043;28;20580;-70
2020/12/16 04:46:07;;;;;;;80.82;17.83;;;5.80;99.90;;;;;;5011813;28;20551;-70
2020/12/16 04:48:33;;;;;;;81.45;18.85;;;5.80;99.90;;;;;;5011860;28;20257;-69
2020/12/16 04:51:01;;;;;;;77.22;17.58;;;5.70;99.90;;;;;;5011711;28;20226;-70
2020/12/16 04:53:28;;;;;;;74.45;16.40;;;5.70;99.90;;;;;;5011773;28;20204;-69
2020/12/16 04:55:58;;;;;;;75.72;17.60;;;5.70;99.90;;;;;;5011688;28;20227;-69
2020/12/16 04:58:24;;;;;;;78.10;17.98;;;5.60;99.90;;;;;;5011737;28;20218;-69
2020/12/16 05:00:51;;;;;;;76.65;17.63;;;5.60;99.90;;;;;;5011634;28;20202;-69
2020/12/16 05:03:18;;;;;;;78.25;16.70;;;5.60;99.90;;;;;;5011632;28;20246;-69
2020/12/16 05:05:44;;;;;;;76.90;16.23;;;5.50;99.90;;;;;;5011360;28;20231;-69
2020/12/16 05:08:11;;;;;;;77.00;16.80;;;5.50;99.90;;;;;;5011485;28;20208;-69
2020/12/16 05:10:39;;;;;;;72.15;16.42;;;5.50;99.90;;;;;;5011806;28;20219;-70
2020/12/16 05:13:08;;;;;;;72.07;17.17;;;5.50;99.90;;;;;;5011367;28;20312;-69
2020/12/16 05:15:35;;;;;;;78.05;17.92;;;5.50;99.90;;;;;;5011090;28;20282;-69
2020/12/16 05:18:13;;;;;;;76.95;16.90;;;5.50;99.90;;;;;;5011404;28;20258;-69
2020/12/16 05:20:41;;;;;;;78.10;17.88;;;5.50;99.90;;;;;;5011389;28;20300;-69
2020/12/16 05:23:08;;;;;;;77.45;17.15;;;5.50;99.90;;;;;;5011545;28;20636;-69
2020/12/16 05:25:35;;;;;;;74.53;16.88;;;5.50;99.90;;;;;;5011440;28;20204;-69
2020/12/16 05:28:02;;;;;;;78.45;16.95;;;5.50;99.90;;;;;;5011568;28;20690;-69
2020/12/16 05:30:29;;;;;;;74.47;17.35;;;5.50;99.90;;;;;;5011284;28;20215;-69
2020/12/16 05:32:55;;;;;;;75.53;17.30;;;5.50;99.90;;;;;;5011147;28;20227;-69
2020/12/16 05:35:28;;;;;;;79.45;16.83;;;5.50;99.90;;;;;;5010879;28;20259;-69
2020/12/16 05:38:05;;;;;;;75.85;17.42;;;5.50;99.90;;;;;;5011261;28;20244;-69
2020/12/16 05:40:33;;;;;;;76.85;16.17;;;5.50;99.90;;;;;;5011395;28;20261;-68
2020/12/16 05:43:00;;;;;;;75.32;16.25;;;5.50;99.90;;;;;;5011149;28;20283;-69
2020/12/16 05:45:28;;;;;;;77.35;16.50;;;5.60;99.90;;;;;;5013227;28;20238;-69
2020/12/16 05:48:01;;;;;;;77.10;16.73;;;5.60;99.90;;;;;;5014789;28;20211;-70
2020/12/16 05:50:36;;;;;;;75.38;15.52;;;5.60;99.90;;;;;;5015127;28;20210;-69
2020/12/16 05:53:11;;;;;;;80.15;17.35;;;5.60;99.90;;;;;;5015476;28;20236;-69
2020/12/16 05:55:38;;;;;;;76.15;17.02;;;5.70;99.90;;;;;;5014663;28;20238;-69
2020/12/16 05:58:12;;;;;;;81.38;18.60;;;5.70;99.90;;;;;;5014855;28;20270;-69
2020/12/16 06:00:47;;;;;;;78.80;17.40;;;5.70;99.90;;;;;;5014962;28;20234;-69
2020/12/16 06:03:22;;;;;;;80.03;18.30;;;5.80;99.90;;;;;;5015158;28;20214;-69
2020/12/16 06:05:54;;;;;;;77.40;16.35;;;5.80;99.90;;;;;;5014508;28;20211;-70
2020/12/16 06:08:21;;;;;;;79.63;18.67;;;5.80;99.90;;;;;;5015012;28;20260;-70
2020/12/16 06:10:50;;;;;;;78.07;16.42;;;5.80;99.90;;;;;;5014298;28;20570;-69
2020/12/16 06:13:18;;;;;;;77.95;17.90;;;5.80;99.90;;;;;;5014684;28;20307;-70
2020/12/16 06:16:01;;;;;;;80.85;17.00;;;5.90;99.90;;;;;;5014037;28;20717;-69
2020/12/16 06:18:30;;;;;;;79.10;16.77;;;5.90;99.90;;;;;;5014654;28;20683;-70
2020/12/16 06:20:57;;;;;;;88.20;18.45;;;5.90;99.90;;;;;;5014350;28;20211;-69
2020/12/16 06:23:33;;;;;;;78.68;16.38;;;5.90;99.90;;;;;;5014262;28;20697;-69
2020/12/16 06:26:02;;;;;;;82.40;16.90;;;5.90;99.90;;;;;;5014106;28;20199;-70
2020/12/16 06:28:28;;;;;;;75.40;16.20;;;5.90;99.90;;;;;;5014479;28;20217;-69
2020/12/16 06:31:06;;;;;;;79.97;16.42;;;5.90;99.90;;;;;;5014619;28;20238;-69
2020/12/16 06:33:39;;;;;;;81.63;16.92;;;5.90;99.90;;;;;;5014057;28;20214;-69
2020/12/16 06:36:08;;;;;;;81.70;18.33;;;5.90;99.90;;;;;;5013921;28;20702;-69
2020/12/16 06:38:43;;;;;;;85.97;19.48;;;5.90;99.90;;;;;;5014247;28;20203;-69
2020/12/16 06:41:18;;;;;;;79.63;19.15;;;5.90;99.90;;;;;;5014114;28;20262;-69
2020/12/16 06:43:45;;;;;;;87.20;18.85;;;5.90;99.90;;;;;;5013957;28;20669;-69
2020/12/16 06:46:40;;;;;;;82.32;18.95;;;5.90;99.90;;;;;;5013558;28;20218;-70
2020/12/16 06:49:08;;;;;;;78.88;17.80;;;5.90;99.90;;;;;;5000850;28;20733;-69
2020/12/16 06:51:42;;;;;;;84.05;19.20;;;5.90;99.90;;;;;;5013935;28;20226;-69
2020/12/16 06:54:11;;;;;;;80.38;18.45;;;5.90;99.90;;;;;;5013587;28;20210;-69
2020/12/16 06:56:37;;;;;;;84.55;19.13;;;5.90;99.90;;;;;;5012927;28;20207;-69
2020/12/16 06:59:04;;;;;;;86.38;19.33;;;5.90;99.90;;;;;;5013663;28;20218;-69
2020/12/16 07:01:31;;;;;;;84.47;18.38;;;5.80;99.90;;;;;;5013610;28;20242;-69
2020/12/16 07:03:57;;;;;;;83.40;18.90;;;5.80;99.90;;;;;;5013611;28;20204;-69
2020/12/16 07:06:38;;;;;;;89.13;19.98;;;5.80;99.90;;;;;;5012498;28;20246;-69
2020/12/16 07:09:15;;;;;;;81.68;18.95;;;5.80;99.90;;;;;;5013424;28;20215;-68
2020/12/16 07:11:43;;;;;;;84.57;19.65;;;5.80;99.90;;;;;;5012589;28;20245;-69
2020/12/16 07:14:10;;;;;;;89.57;20.50;;;5.90;99.90;;;;;;5013105;28;20581;-69
2020/12/16 07:16:37;;;;;;;91.35;20.17;;;5.90;99.90;;;;;;5013066;28;20211;-69
2020/12/16 07:19:03;;;;;;;83.22;18.10;;;5.90;99.90;;;;;;5013465;28;20207;-69
2020/12/16 07:21:31;;;;;;;88.80;18.98;;;5.90;99.90;;;;;;5012609;28;20563;-69
2020/12/16 07:24:02;;;;;;;84.30;18.52;;;5.90;99.90;;;;;;5013060;28;20673;-69
2020/12/16 07:26:31;;;;;;;82.40;19.10;;;5.90;99.90;;;;;;5012703;28;20214;-69
2020/12/16 07:29:00;;;;;;;81.45;17.90;;;6.00;99.90;;;;;;5013156;28;20212;-69
2020/12/16 07:31:27;;;;;;;77.05;17.73;;;6.00;99.90;;;;;;5012972;28;20309;-69
2020/12/16 07:33:54;;;;;;;79.72;17.40;;;6.00;99.90;;;;;;5012179;28;20581;-69
2020/12/16 07:36:22;;;;;;;88.55;18.30;;;6.10;99.90;;;;;;5012062;28;20268;-69
2020/12/16 07:38:53;;;;;;;87.32;19.60;;;6.10;99.90;;;;;;5013066;28;20274;-69
2020/12/16 07:41:27;;;;;;;82.88;16.95;;;6.10;99.90;;;;;;5013022;28;20228;-69
2020/12/16 07:43:56;;;;;;;92.55;20.25;;;6.10;99.90;;;;;;5012143;28;20243;-69
2020/12/16 07:46:23;;;;;;;84.75;17.95;;;6.10;99.90;;;;;;5012557;28;20204;-69
2020/12/16 07:48:50;;;;;;;81.70;18.80;;;6.10;99.90;;;;;;5012904;28;20212;-69
2020/12/16 07:51:18;;;;;;;82.80;18.95;;;6.20;99.90;;;;;;5012265;28;20232;-68
2020/12/16 07:53:47;;;;;;;86.95;18.08;;;6.20;99.90;;;;;;5012364;28;20216;-69
2020/12/16 07:56:15;;;;;;;80.43;18.77;;;6.20;99.90;;;;;;5012478;28;20367;-69
2020/12/16 07:58:42;;;;;;;80.43;18.02;;;6.20;99.90;;;;;;5012627;28;20218;-69
2020/12/16 08:01:10;;;;;;;79.72;17.92;;;6.20;99.90;;;;;;5012083;28;20346;-69
2020/12/16 08:03:38;;;;;;;79.90;16.70;;;6.20;99.90;;;;;;5012816;28;20202;-70
2020/12/16 08:06:04;;;;;;;81.25;20.38;;;6.20;99.90;;;;;;5012308;28;20206;-69
2020/12/16 08:08:32;;;;;;;79.55;17.25;;;6.20;99.90;;;;;;5012047;28;20208;-70
2020/12/16 08:10:59;;;;;;;78.90;17.08;;;6.20;99.90;;;;;;5012552;28;20211;-70
2020/12/16 08:13:26;;;;;;;83.65;18.08;;;6.20;99.90;;;;;;5012245;28;20223;-69
2020/12/16 08:16:03;;;;;;;81.43;17.65;;;6.20;99.90;;;;;;5012097;28;20262;-69
2020/12/16 08:18:31;;;;;;;82.45;20.55;;;6.20;99.90;;;;;;5012565;28;20289;-68
2020/12/16 08:20:57;;;;;;;83.68;22.55;;;6.30;99.90;;;;;;5012160;28;20300;-68
2020/12/16 08:23:23;;;;;;;96.32;21.15;;;6.30;99.90;;;;;;5012160;28;20217;-69
2020/12/16 08:25:50;;;;;;;92.80;20.95;;;6.40;99.90;;;;;;5011866;28;20199;-69
2020/12/16 08:28:25;;;;;;;95.55;20.80;;;6.40;99.90;;;;;;5011833;28;20247;-68
2020/12/16 08:30:52;;;;;;;92.80;20.50;;;6.50;99.90;;;;;;5012305;28;20207;-69
2020/12/16 08:33:19;;;;;;;97.28;21.27;;;6.50;99.90;;;;;;5011858;28;20216;-69
2020/12/16 08:35:50;;;;;;;103.28;23.30;;;6.60;99.90;;;;;;5011889;28;20597;-69
2020/12/16 08:38:24;;;;;;;89.97;21.70;;;6.70;99.90;;;;;;5011963;28;20209;-69
2020/12/16 08:40:51;;;;;;;86.93;20.63;;;6.80;99.90;;;;;;5011834;28;20437;-69
2020/12/16 08:43:22;;;;;;;90.90;21.38;;;6.80;99.90;;;;;;5011749;28;20244;-68
2020/12/16 08:45:49;;;;;;;87.60;21.45;;;6.90;99.90;;;;;;5011639;28;20204;-68
2020/12/16 08:48:15;;;;;;;83.55;21.80;;;7.00;99.90;;;;;;5011886;28;20632;-68
2020/12/16 08:50:41;;;;;;;91.05;23.02;;;7.10;99.90;;;;;;5011586;28;20269;-68
2020/12/16 08:53:11;;;;;;;90.68;23.17;;;7.20;99.90;;;;;;5011518;28;20215;-68
2020/12/16 08:55:38;;;;;;;87.88;21.95;;;7.40;99.90;;;;;;5011633;28;20228;-68
2020/12/16 08:58:05;;;;;;;92.25;22.33;;;7.50;99.90;;;;;;5012051;28;20212;-68
2020/12/16 09:00:33;;;;;;;94.27;22.83;;;7.70;99.90;;;;;;5011625;28;20717;-68
2020/12/16 09:03:06;;;;;;;91.30;21.73;;;7.80;99.90;;;;;;5011674;28;20915;-68
2020/12/16 09:05:34;;;;;;;99.73;22.37;;;7.80;99.90;;;;;;5011298;28;20442;-68
2020/12/16 09:08:08;;;;;;;85.03;22.02;;;7.90;99.90;;;;;;5011572;28;20490;-68
2020/12/16 09:10:36;;;;;;;95.53;23.00;;;7.90;99.90;;;;;;5011569;28;20265;-69
2020/12/16 09:13:14;;;;;;;91.10;22.80;;;7.90;99.90;;;;;;5011369;28;20530;-69
2020/12/16 09:15:43;;;;;;;84.15;19.95;;;7.80;99.90;;;;;;5011371;28;20915;-69
2020/12/16 09:18:10;;;;;;;76.75;18.05;;;7.70;99.90;;;;;;5011577;28;20223;-69
2020/12/16 09:20:36;;;;;;;90.25;21.38;;;7.70;99.90;;;;;;5015971;28;20215;-68
2020/12/16 09:23:03;;;;;;;90.23;21.40;;;7.60;99.90;;;;;;5015558;28;20240;-69
2020/12/16 09:25:29;;;;;;;89.00;23.58;;;7.60;99.90;;;;;;5015345;28;20477;-68
2020/12/16 09:27:58;;;;;;;88.43;24.10;;;7.70;99.90;;;;;;5015486;28;20204;-68
2020/12/16 09:30:29;;;;;;;88.73;24.17;;;7.90;99.90;;;;;;5015397;28;20486;-68
2020/12/16 09:32:56;;;;;;;91.03;24.97;;;8.10;99.90;;;;;;5014978;28;21053;-69
2020/12/16 09:35:23;;;;;;;89.40;24.33;;;8.30;99.90;;;;;;5015257;28;20919;-70
2020/12/16 09:37:50;;;;;;;84.50;22.70;;;8.50;99.90;;;;;;5015151;28;20459;-69
2020/12/16 09:40:17;;;;;;;89.53;26.00;;;8.60;99.90;;;;;;5015378;28;20502;-68
2020/12/16 09:42:59;;;;;;;94.97;25.10;;;8.60;99.90;;;;;;5015107;28;20568;-69
2020/12/16 09:45:30;;;;;;;81.00;21.97;;;8.60;99.90;;;;;;5014784;28;20448;-68
2020/12/16 09:47:58;;;;;;;85.10;21.90;;;8.50;99.90;;;;;;5015356;28;20451;-69
2020/12/16 09:50:26;;;;;;;83.60;22.87;;;8.50;99.90;;;;;;5015135;28;20468;-68
2020/12/16 09:52:57;;;;;;;85.83;23.50;;;8.50;99.90;;;;;;5015067;28;20526;-68
2020/12/16 09:55:24;;;;;;;82.53;22.43;;;8.70;99.90;;;;;;5014537;28;20499;-68
2020/12/16 09:58:02;;;;;;;90.07;25.20;;;8.90;99.90;;;;;;5014846;28;20454;-69
2020/12/16 10:00:29;;;;;;;87.30;26.77;;;9.30;99.90;;;;;;5014977;28;20830;-69
2020/12/16 10:02:57;;;;;;;87.30;24.70;;;9.60;99.90;;;;;;5014761;28;20475;-71
2020/12/16 10:05:24;;;;;;;95.30;26.03;;;9.90;99.90;;;;;;5015340;28;20449;-70
2020/12/16 10:07:50;;;;;;;94.10;27.60;;;10.10;99.90;;;;;;5017952;28;20460;-69
2020/12/16 10:10:16;;;;;;;88.23;24.37;;;10.50;99.90;;;;;;5014440;28;20460;-69
2020/12/16 10:12:42;;;;;;;90.33;27.87;;;10.90;99.90;;;;;;5014508;28;20477;-69
2020/12/16 10:15:10;;;;;;;86.67;28.37;;;11.50;99.90;;;;;;5071542;22;20534;-67
2020/12/16 10:17:36;;;;;;;88.03;27.93;;;12.30;99.90;;;;;;5054103;28;20502;-67
2020/12/16 10:20:03;;;;;;;86.20;27.90;;;13.10;99.90;;;;;;5054235;28;20448;-68
2020/12/16 10:22:29;;;;;;;80.43;25.23;;;13.90;99.90;;;;;;5054117;28;20475;-67
2020/12/16 10:24:56;;;;;;;78.80;22.77;;;14.60;99.90;;;;;;5053974;28;20543;-67
2020/12/16 10:27:22;;;;;;;74.87;20.90;;;15.20;99.90;;;;;;5053773;28;20485;-68
2020/12/16 10:29:48;;;;;;;72.73;18.40;;;15.70;99.90;;;;;;5053430;28;20965;-68
2020/12/16 10:32:16;;;;;;;74.60;17.00;;;16.30;93.40;;;;;;5053489;28;21018;-70
2020/12/16 10:34:43;;;;;;;68.73;15.37;;;16.30;71.90;;;;;;5053829;28;20473;-70
2020/12/16 10:37:09;;;;;;;67.70;13.80;;;16.40;72.80;;;;;;5053539;28;20462;-67
2020/12/16 10:39:36;;;;;;;66.80;13.23;;;16.60;54.50;;;;;;5053653;28;20522;-67
2020/12/16 10:42:02;;;;;;;65.37;11.93;;;16.40;49.10;;;;;;5053700;28;20503;-67
2020/12/16 10:44:29;;;;;;;65.10;12.20;;;16.70;48.10;;;;;;5053671;28;20467;-67
2020/12/16 10:46:56;;;;;;;67.80;10.80;;;17.50;40.40;;;;;;5053474;28;20455;-67
2020/12/16 10:49:24;;;;;;;70.00;13.10;;;18.50;35.20;;;;;;5053653;28;20444;-67
2020/12/16 10:51:51;;;;;;;65.60;11.27;;;18.80;24.90;;;;;;5053571;28;20456;-67
2020/12/16 10:54:18;;;;;;;64.07;10.77;;;18.80;25.10;;;;;;5053194;28;20471;-67
2020/12/16 10:56:50;;;;;;;63.40;10.20;;;19.30;26.20;;;;;;5053013;28;20554;-67
2020/12/16 10:59:16;;;;;;;65.53;10.17;;;19.90;22.20;;;;;;5053338;28;20967;-66
2020/12/16 11:01:44;;;;;;;62.83;9.40;;;20.40;15.60;;;;;;5053513;28;20449;-67
2020/12/16 11:04:10;;;;;;;64.77;10.90;;;21.00;11.30;;;;;;5053151;28;20561;-67
2020/12/16 11:06:38;;;;;;;63.73;9.40;;;21.20;7.90;;;;;;5052931;28;20527;-67
2020/12/16 11:09:05;;;;;;;64.47;9.73;;;21.40;7.60;;;;;;5053390;28;20493;-67
2020/12/16 11:11:31;;;;;;;62.83;9.10;;;21.60;5.50;;;;;;5053099;28;20449;-67
2020/12/16 11:13:58;;;;;;;62.50;9.30;;;21.90;5.00;;;;;;5052899;28;20586;-67
2020/12/16 11:16:29;;;;;;;62.57;9.50;;;22.40;4.10;;;;;;5052123;28;20495;-67
2020/12/16 11:18:56;;;;;;;62.67;9.23;;;22.80;1.40;;;;;;5053204;28;20781;-67
2020/12/16 11:21:22;;;;;;;61.77;9.00;;;23.00;1.00;;;;;;5052980;28;20494;-68
2020/12/16 11:23:49;;;;;;;63.90;9.00;;;23.40;1.00;;;;;;5052439;28;20525;-67
2020/12/16 11:26:15;;;;;;;63.60;9.00;;;23.80;1.00;;;;;;5052764;28;20444;-67
2020/12/16 11:28:41;;;;;;;62.57;8.93;;;24.20;1.00;;;;;;5052871;28;20448;-67
2020/12/16 11:31:08;;;;;;;65.33;9.93;;;24.50;1.00;;;;;;5053176;28;20510;-67
2020/12/16 11:33:34;;;;;;;62.47;9.20;;;24.80;1.00;;;;;;5052463;28;20474;-67
2020/12/16 11:36:01;;;;;;;61.87;8.70;;;25.20;1.00;;;;;;5052902;28;20931;-67
2020/12/16 11:38:27;;;;;;;62.10;9.07;;;25.40;1.00;;;;;;5052853;28;20517;-67
2020/12/16 11:40:54;;;;;;;65.30;9.60;;;25.40;1.00;;;;;;5052759;28;20450;-67
2020/12/16 11:43:20;;;;;;;64.27;8.97;;;25.60;1.00;;;;;;5052856;28;20770;-68
2020/12/16 11:45:46;;;;;;;61.20;7.30;;;25.90;1.00;;;;;;5052212;28;20484;-68
2020/12/16 11:48:13;;;;;;;61.40;8.30;;;26.20;1.00;;;;;;5052438;28;20460;-68
2020/12/16 11:50:39;;;;;;;60.20;7.60;;;26.30;1.00;;;;;;5052645;28;20449;-68
2020/12/16 11:53:06;;;;;;;60.87;8.17;;;26.30;1.00;;;;;;5052370;28;20459;-68
2020/12/16 11:55:32;;;;;;;61.60;8.60;;;26.50;1.00;;;;;;5052164;28;20450;-68
2020/12/16 11:57:59;;;;;;;61.10;7.70;;;26.70;1.00;;;;;;5052507;28;20502;-68
2020/12/16 12:00:25;;;;;;;61.27;8.60;;;26.90;1.00;;;;;;5052197;28;20995;-68
2020/12/16 12:02:51;;;;;;;61.33;7.67;;;27.30;1.00;;;;;;5052113;28;20514;-68
2020/12/16 12:05:18;;;;;;;62.37;8.20;;;27.50;1.00;;;;;;5052016;28;20490;-68
2020/12/16 12:07:44;;;;;;;63.30;8.80;;;27.40;1.00;;;;;;5052248;28;20446;-68
2020/12/16 12:10:11;;;;;;;62.27;8.30;;;27.40;1.00;;;;;;5052192;28;20449;-68
2020/12/16 12:12:38;;;;;;;61.00;7.70;;;27.50;1.00;;;;;;5052062;28;20451;-68
2020/12/16 12:15:05;;;;;;;59.87;7.33;;;27.80;1.00;;;;;;5051951;28;20479;-68
2020/12/16 12:17:31;;;;;;;63.00;8.73;;;28.10;1.00;;;;;;5051541;28;20494;-68
2020/12/16 12:19:58;;;;;;;60.83;7.13;;;28.10;1.00;;;;;;5052133;28;20534;-68
2020/12/16 12:22:24;;;;;;;61.47;7.83;;;27.90;1.00;;;;;;5051946;28;20545;-67
2020/12/16 12:24:50;;;;;;;62.73;8.80;;;28.00;1.00;;;;;;5051930;28;20482;-68
2020/12/16 12:27:19;;;;;;;59.70;6.80;;;28.10;1.00;;;;;;5051609;28;20458;-68
2020/12/16 12:29:46;;;;;;;63.50;8.00;;;28.00;1.00;;;;;;5051782;28;20487;-68
2020/12/16 12:32:14;;;;;;;64.10;7.87;;;28.20;1.00;;;;;;5051594;28;20534;-67
2020/12/16 12:34:40;;;;;;;62.60;7.57;;;28.20;1.00;;;;;;5051847;28;20499;-68
2020/12/16 12:37:06;;;;;;;62.07;7.97;;;28.00;1.00;;;;;;5051507;28;20963;-68
2020/12/16 12:39:33;;;;;;;60.40;7.83;;;27.90;1.00;;;;;;5052088;28;20914;-68
2020/12/16 12:41:59;;;;;;;62.60;8.50;;;27.90;1.00;;;;;;5051499;28;20466;-68